privacy
02-21-2019 Fiesta de Arman Going Away (parte 1 de 2) 2:10:38 123 3 0 0
02-21-2019 Fiesta de Arman Going Away (parte 2 de 2) 1:17:37 64 2 0 0
02-27-19 Live Tech-House DJ Set on Spoondrift Radio 1:59:31 67 3 0 0
02-05-19 Live DNB Dj Set on Spoondrift Radio 2:04:23 55 4 0 0
01-22-19 Live Ambient and IDM Dj Set on Spoondrift Radio 1:34:42 37 4 0 0
12-07-2018 Live Ambient and IDM Dj Set @ Yoroshiku, Seattle, WA 2:13:30 51 4 0 0
[04-23-2018] Earth (tech-trance) DEMO 59:11 254 32 0 0
SDR 06-26-2018 Feat Grei Logic-DNBSessions 1:12:55 141 20 0 0
Live @ Mirage, June 22, 2018 (Booty Chakra Collective, Portland OR) 1:02:56 120 0 0
[01-30-2018] Live DJ Set feat music by David Dewey and Grei Logic (progressive) 58:46 61 7 1 0
[02-20-2018] Goa Trance Suomi Live DJ Set 1:10:52 119 9 1 0
[01-19-2018] Live DNB DJ Set at the Orient Express [Seattle, WA] 49:41 83 9 0 1
[01-09-2018] DNB Sessions 003 1:02:15 66 11 0 0
[12.31.2017] DJ Grei Live in PDX NYE 2017 1:22:25 71 10 0 0
[12-26-2017] DNB Sessions 002, Live from Spoondrift Radio 1:21:24 57 9 0 0
[08-20-2017] Psyclipse - Live Downbeat/Midtempo/IDM DJ Set 2:03:20 103 9 0 0
[07.18.2017] DNB Sessions 001 Recorded on Spoondrift Radio 1:15:04 64 9 0 0
[05.20.2017] Heartbeat Silent Disco DJ set at Bloom Festival 2017 2:03:51 69 9 0 0
[04-22-2017] Twilight Gatherings Live Techno and Trance Mix 49:43 71 12 0 0
[03.18.2017] Impromptu Mix 40:53 47 15 0 0
[01.12.2017] Forestation 44:49 68 10 0 0
[09-11-2016] Grei (DNB Set) 1:00:21 56 10 0 0
[08-28-2016] Journey to the Playa 1:53:50 59 9 0 0
[08-21-2016] Psy n' Bass 2:02:44 43 7 0 0
[08-14-2016] Cinematic Voyage 54:50 45 7 0 0
[07-23-2016] Gotta Catch 'eM aLL! 2:13:59 61 13 1 2
[07-17-2016] Spoondrift Radio - Grei (Dub-Tempo Mix) 55:56 55 6 0 0
[07-16-2016] Warped Live at Fractal Frydays (DJ Set) 54:23 55 8 0 0
[07-03-2016] Spoondrift Radio (DnB DJ Set) 1:32:25 58 7 0 0
[06-26-2016] Spoondrift Radio- The Return Feat. Grei 1:55:38 52 12 0 0
[06.04.2016] Happy 604 from Spoondrift Radio (Goa DJ Set) 2:09:26 64 0 0
[05.28.2016] The Quantum Particle (ElectroTech) 55:04 51 0 0
[03.16.2015] Space Toilet Radio Psy Mix 57:00 55 0 0